Time;durP1;ratioP1;P1;durP2;ratioP2;P2;SDS_P1;SDS_P2;PMS_P1;PMS_P2;Temp;Humidity;BMP_temperature;BMP_pressure;BME280_temperature;BME280_humidity;BME280_pressure;Samples;Min_cycle;Max_cycle;Signal;HPM_P1;HPM_P2
2021/01/11 00:00:51;;;;;;;65.97;59.33;;;4.00;45.00;;;;;;5017122;28;20175;-69
2021/01/11 00:03:17;;;;;;;59.00;53.20;;;4.10;43.00;;;;;;5017016;28;20171;-69
2021/01/11 00:05:42;;;;;;;60.70;55.10;;;4.00;42.60;;;;;;5016853;28;20245;-69
2021/01/11 00:08:08;;;;;;;65.37;57.17;;;4.00;41.60;;;;;;5016458;28;20213;-69
2021/01/11 00:10:35;;;;;;;68.90;61.50;;;4.00;41.60;;;;;;5016871;28;20202;-69
2021/01/11 00:13:00;;;;;;;67.95;61.13;;;4.00;40.80;;;;;;5016952;28;20195;-69
2021/01/11 00:15:26;;;;;;;64.27;57.53;;;4.10;39.20;;;;;;5016616;28;20572;-69
2021/01/11 00:17:52;;;;;;;68.10;60.97;;;4.10;38.20;;;;;;5016487;28;20191;-69
2021/01/11 00:20:17;;;;;;;68.77;61.57;;;4.00;36.70;;;;;;5016692;28;20213;-69
2021/01/11 00:22:43;;;;;;;67.23;60.03;;;4.00;39.90;;;;;;5016687;28;20174;-69
2021/01/11 00:25:09;;;;;;;69.73;62.43;;;4.10;41.10;;;;;;5016694;28;20168;-70
2021/01/11 00:27:35;;;;;;;69.50;58.45;;;4.10;37.60;;;;;;5016423;28;20872;-69
2021/01/11 00:30:00;;;;;;;66.07;57.87;;;4.10;36.10;;;;;;5016493;28;20214;-69
2021/01/11 00:32:26;;;;;;;65.30;58.27;;;4.10;34.90;;;;;;5016697;28;20171;-69
2021/01/11 00:34:52;;;;;;;58.27;51.97;;;4.10;35.00;;;;;;5016583;28;20176;-69
2021/01/11 00:37:17;;;;;;;72.03;54.50;;;4.10;35.80;;;;;;5014997;28;20186;-69
2021/01/11 00:39:43;;;;;;;69.60;58.20;;;4.10;34.50;;;;;;5016539;28;20226;-70
2021/01/11 00:42:08;;;;;;;66.17;55.30;;;4.20;34.00;;;;;;5016345;28;20181;-69
2021/01/11 00:44:34;;;;;;;70.07;54.37;;;4.20;33.90;;;;;;5016347;28;20271;-69
2021/01/11 00:47:02;;;;;;;68.83;55.83;;;4.10;33.90;;;;;;5015927;28;20171;-69
2021/01/11 00:49:27;;;;;;;67.25;56.67;;;4.10;33.80;;;;;;5014663;28;20237;-69
2021/01/11 00:51:53;;;;;;;71.03;56.27;;;4.10;34.80;;;;;;5016069;28;20174;-69
2021/01/11 00:54:19;;;;;;;67.90;55.10;;;4.10;33.40;;;;;;5016089;28;20489;-69
2021/01/11 00:56:45;;;;;;;70.90;61.88;;;4.10;32.50;;;;;;5015805;28;20772;-69
2021/01/11 00:59:11;;;;;;;70.23;55.60;;;4.10;32.40;;;;;;5015837;28;20195;-69
2021/01/11 01:01:36;;;;;;;75.07;56.97;;;4.10;31.60;;;;;;5016217;28;20253;-70
2021/01/11 01:04:04;;;;;;;68.97;60.30;;;4.10;30.60;;;;;;5016032;28;20413;-69
2021/01/11 01:06:30;;;;;;;68.07;60.63;;;4.20;29.80;;;;;;5015067;28;20172;-69
2021/01/11 01:08:55;;;;;;;71.17;54.87;;;4.20;28.30;;;;;;5014688;28;20281;-69
2021/01/11 01:11:21;;;;;;;69.07;59.10;;;4.20;26.60;;;;;;5015571;28;20179;-69
2021/01/11 01:13:50;;;;;;;76.03;56.43;;;4.20;24.80;;;;;;5015623;28;20191;-70
2021/01/11 01:16:25;;;;;;;80.40;71.82;;;4.20;24.70;;;;;;5015565;28;20360;-69
2021/01/11 01:18:51;;;;;;;85.55;62.30;;;4.20;25.00;;;;;;5015597;28;20219;-70
2021/01/11 01:21:16;;;;;;;78.53;60.80;;;4.20;24.90;;;;;;5015799;28;20182;-69
2021/01/11 01:23:42;;;;;;;72.30;64.17;;;4.20;24.90;;;;;;5015476;28;20270;-70
2021/01/11 01:26:07;;;;;;;76.43;59.03;;;4.20;23.60;;;;;;5015405;28;20171;-70
2021/01/11 01:28:33;;;;;;;87.87;60.07;;;4.20;23.10;;;;;;5015516;28;20207;-70
2021/01/11 01:30:58;;;;;;;80.00;58.37;;;4.20;22.60;;;;;;5015522;28;20199;-69
2021/01/11 01:33:24;;;;;;;81.43;55.37;;;4.20;21.50;;;;;;5015412;28;20171;-70
2021/01/11 01:35:50;;;;;;;72.00;59.60;;;4.30;20.20;;;;;;5015091;28;20159;-69
2021/01/11 01:38:15;;;;;;;76.63;56.50;;;4.30;19.00;;;;;;5015256;28;20195;-70
2021/01/11 01:40:45;;;;;;;78.33;61.87;;;4.30;17.90;;;;;;5015474;28;20253;-69
2021/01/11 01:43:11;;;;;;;89.03;60.80;;;4.30;17.30;;;;;;5014914;28;20163;-69
2021/01/11 01:45:36;;;;;;;86.72;62.35;;;4.30;17.70;;;;;;5014808;28;20183;-69
2021/01/11 01:48:03;;;;;;;80.80;61.13;;;4.20;18.60;;;;;;5015186;28;20207;-69
2021/01/11 01:50:29;;;;;;;77.68;56.15;;;4.20;18.30;;;;;;5014908;28;20708;-69
2021/01/11 01:52:54;;;;;;;76.27;58.07;;;4.20;18.50;;;;;;5015087;28;20254;-69
2021/01/11 01:55:20;;;;;;;68.40;57.00;;;4.20;18.50;;;;;;5013703;28;20184;-70
2021/01/11 01:57:47;;;;;;;80.17;64.37;;;4.20;17.50;;;;;;5014851;28;20175;-69
2021/01/11 02:00:14;;;;;;;73.03;63.13;;;4.20;16.60;;;;;;5015148;28;20452;-69
2021/01/11 02:02:40;;;;;;;75.70;61.65;;;4.10;16.80;;;;;;5015008;28;20229;-70
2021/01/11 02:05:06;;;;;;;74.33;57.07;;;4.20;16.60;;;;;;5015312;28;20657;-70
2021/01/11 02:08:00;;;;;;;75.30;58.47;;;4.20;16.20;;;;;;5014705;28;20206;-70
2021/01/11 02:10:46;;;;;;;79.25;55.38;;;4.20;15.60;;;;;;5014643;28;20163;-69
2021/01/11 02:13:21;;;;;;;87.00;57.63;;;4.20;15.60;;;;;;5014916;28;20214;-69
2021/01/11 02:15:52;;;;;;;81.68;58.47;;;4.10;15.70;;;;;;5013108;28;20173;-69
2021/01/11 02:18:39;;;;;;;75.30;60.35;;;4.10;15.70;;;;;;5013605;28;20223;-69
2021/01/11 02:21:12;;;;;;;91.80;63.78;;;4.10;15.50;;;;;;5014845;28;20202;-69
2021/01/11 02:24:10;;;;;;;66.25;55.95;;;4.10;14.90;;;;;;5014488;28;20203;-69
2021/01/11 02:26:47;;;;;;;88.55;61.30;;;4.10;14.30;;;;;;5014402;28;20185;-69
2021/01/11 02:29:50;;;;;;;73.45;56.55;;;4.20;13.30;;;;;;5014814;28;20681;-70
2021/01/11 02:32:17;;;;;;;81.93;59.85;;;4.20;12.10;;;;;;5014706;28;20167;-70
2021/01/11 02:34:45;;;;;;;78.45;58.92;;;4.20;11.00;;;;;;5014523;28;20167;-69
2021/01/11 02:37:11;;;;;;;80.82;59.13;;;4.20;10.60;;;;;;5014212;28;20179;-69
2021/01/11 02:39:39;;;;;;;77.60;58.00;;;4.20;13.90;;;;;;5014740;28;20671;-69
2021/01/11 02:42:05;;;;;;;73.25;56.22;;;4.10;10.20;;;;;;5014098;28;20179;-69
2021/01/11 02:44:30;;;;;;;76.80;58.70;;;4.10;10.90;;;;;;5014422;28;20187;-69
2021/01/11 02:46:56;;;;;;;71.80;53.10;;;4.10;10.60;;;;;;5013777;28;20410;-70
2021/01/11 02:49:38;;;;;;;72.43;50.67;;;4.10;10.00;;;;;;5014222;28;20194;-69
2021/01/11 02:52:19;;;;;;;81.47;59.15;;;4.10;9.80;;;;;;5014165;28;20171;-69
2021/01/11 02:54:58;;;;;;;76.20;62.47;;;4.10;10.10;;;;;;5014140;28;20171;-69
2021/01/11 02:57:39;;;;;;;78.32;58.15;;;4.10;9.00;;;;;;5014025;28;20189;-69
2021/01/11 03:00:07;;;;;;;82.65;64.05;;;4.10;8.60;;;;;;5014116;28;20186;-69
2021/01/11 03:02:35;;;;;;;73.07;62.47;;;4.10;7.10;;;;;;5013968;28;20634;-69
2021/01/11 03:05:01;;;;;;;83.82;62.70;;;4.10;6.20;;;;;;5013917;28;20194;-69
2021/01/11 03:07:27;;;;;;;76.53;62.42;;;4.10;5.80;;;;;;5013787;28;20207;-70
2021/01/11 03:09:52;;;;;;;90.70;65.00;;;4.00;6.00;;;;;;5013847;28;20187;-69
2021/01/11 03:12:18;;;;;;;79.60;65.27;;;4.00;5.80;;;;;;5012747;28;20540;-69
2021/01/11 03:14:44;;;;;;;92.07;66.60;;;4.10;5.30;;;;;;5013831;28;20163;-69
2021/01/11 03:17:10;;;;;;;81.23;64.17;;;4.10;4.30;;;;;;5013898;28;20171;-69
2021/01/11 03:19:35;;;;;;;80.80;60.40;;;4.00;3.60;;;;;;5013851;28;20429;-70
2021/01/11 03:22:01;;;;;;;77.93;57.63;;;4.00;3.50;;;;;;5013907;28;20179;-69
2021/01/11 03:24:28;;;;;;;77.57;58.53;;;4.00;3.80;;;;;;5013703;28;20566;-69
2021/01/11 03:27:00;;;;;;;85.97;63.05;;;4.00;3.70;;;;;;5013479;28;20249;-70
2021/01/11 03:29:26;;;;;;;72.22;60.70;;;4.00;3.60;;;;;;5016297;28;20669;-70
2021/01/11 03:31:52;;;;;;;84.40;60.00;;;4.10;2.30;;;;;;5016210;28;20185;-70
2021/01/11 03:34:17;;;;;;;88.93;68.03;;;4.10;1.20;;;;;;5016330;28;20171;-69
2021/01/11 03:36:44;;;;;;;75.77;61.27;;;4.10;1.00;;;;;;5017355;28;20175;-70
2021/01/11 03:39:11;;;;;;;84.90;57.47;;;4.10;1.00;;;;;;5017445;28;20218;-70
2021/01/11 03:41:37;;;;;;;76.95;58.25;;;4.10;1.00;;;;;;5017406;28;20187;-70
2021/01/11 03:44:04;;;;;;;74.25;58.55;;;4.10;1.00;;;;;;5017271;28;20171;-69
2021/01/11 03:46:30;;;;;;;90.10;61.10;;;4.20;1.00;;;;;;5017278;28;20253;-69
2021/01/11 03:48:56;;;;;;;76.75;57.50;;;4.20;1.00;;;;;;5017301;28;20213;-70
2021/01/11 03:51:22;;;;;;;95.97;58.47;;;4.20;1.00;;;;;;5017175;28;20225;-70
2021/01/11 03:53:48;;;;;;;85.13;61.70;;;4.20;1.00;;;;;;5017265;28;20171;-70
2021/01/11 03:56:13;;;;;;;82.77;61.70;;;4.20;1.00;;;;;;5016795;28;20441;-70
2021/01/11 03:58:39;;;;;;;82.83;62.57;;;4.10;1.00;;;;;;5016961;28;20313;-69
2021/01/11 04:01:05;;;;;;;94.53;69.10;;;4.10;1.00;;;;;;5016996;28;20186;-69
2021/01/11 04:03:30;;;;;;;88.70;68.53;;;4.10;1.00;;;;;;5015925;28;20638;-69
2021/01/11 04:05:57;;;;;;;89.23;78.83;;;4.00;1.00;;;;;;5016859;28;20171;-69
2021/01/11 04:08:24;;;;;;;86.35;69.32;;;4.10;1.00;;;;;;5015391;28;20211;-69
2021/01/11 04:10:49;;;;;;;84.10;67.00;;;4.10;1.00;;;;;;5016657;28;20163;-69
2021/01/11 04:13:16;;;;;;;92.53;67.70;;;4.10;1.00;;;;;;5016904;28;20179;-70
2021/01/11 04:15:41;;;;;;;87.93;62.88;;;4.10;1.00;;;;;;5016823;28;20218;-69
2021/01/11 04:18:07;;;;;;;76.43;62.63;;;4.00;1.00;;;;;;5016745;28;20268;-69
2021/01/11 04:20:32;;;;;;;84.40;60.60;;;4.00;1.00;;;;;;5016707;28;20172;-69
2021/01/11 04:22:58;;;;;;;94.70;58.73;;;4.00;1.00;;;;;;5016641;28;20648;-69
2021/01/11 04:25:25;;;;;;;81.07;60.40;;;4.00;1.00;;;;;;5016742;28;20175;-70
2021/01/11 04:27:51;;;;;;;83.47;60.22;;;4.10;1.00;;;;;;5016197;28;20481;-70
2021/01/11 04:30:18;;;;;;;86.03;57.85;;;4.10;1.00;;;;;;5016660;28;20539;-69
2021/01/11 04:32:44;;;;;;;84.35;66.72;;;4.10;1.00;;;;;;5016444;28;20175;-69
2021/01/11 04:35:12;;;;;;;86.67;69.03;;;4.10;1.00;;;;;;5016955;28;20182;-69
2021/01/11 04:37:39;;;;;;;87.90;59.10;;;4.10;1.00;;;;;;5016231;28;20412;-69
2021/01/11 04:40:06;;;;;;;75.80;61.40;;;4.10;1.00;;;;;;5015478;28;20175;-69
2021/01/11 04:42:49;;;;;;;91.00;61.95;;;4.10;1.00;;;;;;5016433;28;20199;-69
2021/01/11 04:45:17;;;;;;;82.03;60.75;;;4.10;1.00;;;;;;5016511;28;20262;-69
2021/01/11 04:47:43;;;;;;;69.72;62.08;;;4.10;1.00;;;;;;5015997;28;20729;-70
2021/01/11 04:50:10;;;;;;;79.18;70.53;;;4.00;1.00;;;;;;5016284;28;20259;-69
2021/01/11 04:52:37;;;;;;;66.53;57.47;;;4.00;1.00;;;;;;5015872;28;20254;-70
2021/01/11 04:55:08;;;;;;;77.95;58.22;;;4.10;1.00;;;;;;5015998;28;20203;-69
2021/01/11 04:57:36;;;;;;;72.90;60.85;;;4.00;1.00;;;;;;5015731;28;20171;-69
2021/01/11 05:00:05;;;;;;;70.13;62.50;;;4.10;1.00;;;;;;5014659;28;20233;-70
2021/01/11 05:02:32;;;;;;;80.47;68.47;;;4.00;1.00;;;;;;5015984;28;20179;-70
2021/01/11 05:04:58;;;;;;;71.03;63.22;;;4.00;1.00;;;;;;5016000;28;20180;-69
2021/01/11 05:07:31;;;;;;;67.57;60.33;;;3.90;1.00;;;;;;5015373;28;20214;-70
2021/01/11 05:09:57;;;;;;;64.80;57.80;;;3.90;1.00;;;;;;5015659;28;20985;-69
2021/01/11 05:12:23;;;;;;;73.70;59.20;;;3.90;1.00;;;;;;5016242;28;20210;-69
2021/01/11 05:15:15;;;;;;;77.85;58.78;;;3.90;1.00;;;;;;5015693;28;20410;-69
2021/01/11 05:17:42;;;;;;;63.10;48.22;;;3.80;1.00;;;;;;5015374;28;20175;-70
2021/01/11 05:20:09;;;;;;;64.22;50.85;;;3.80;9.40;;;;;;5015388;28;20168;-70
2021/01/11 05:22:34;;;;;;;59.58;51.85;;;3.80;9.40;;;;;;5015571;28;20179;-70
2021/01/11 05:25:15;;;;;;;61.63;50.30;;;3.80;10.20;;;;;;5015632;28;20180;-70
2021/01/11 05:27:42;;;;;;;55.17;48.95;;;3.80;10.10;;;;;;5015039;28;20175;-70
2021/01/11 05:30:29;;;;;;;55.85;48.65;;;3.70;10.10;;;;;;5015291;28;20183;-70
2021/01/11 05:32:55;;;;;;;64.47;53.22;;;3.70;9.60;;;;;;5015212;28;20182;-70
2021/01/11 05:35:25;;;;;;;55.07;49.73;;;3.70;9.00;;;;;;5015388;28;20254;-70
2021/01/11 05:37:51;;;;;;;57.72;51.40;;;3.70;8.40;;;;;;5015209;28;20254;-70
2021/01/11 05:40:20;;;;;;;57.85;51.85;;;3.70;7.90;;;;;;5014977;28;20243;-70
2021/01/11 05:42:54;;;;;;;56.38;44.85;;;3.70;7.30;;;;;;5015016;28;20221;-69
2021/01/11 05:45:22;;;;;;;61.10;52.70;;;3.70;6.30;;;;;;5015298;28;20178;-70
2021/01/11 05:48:06;;;;;;;57.75;52.28;;;3.70;6.10;;;;;;5014989;28;20191;-70
2021/01/11 05:50:39;;;;;;;60.15;53.90;;;3.70;4.90;;;;;;5015128;28;20592;-70
2021/01/11 05:53:21;;;;;;;58.88;52.88;;;3.70;3.70;;;;;;5013676;28;20175;-70
2021/01/11 05:55:48;;;;;;;68.15;61.50;;;3.70;3.00;;;;;;5015226;28;20175;-70
2021/01/11 05:58:14;;;;;;;58.22;52.75;;;3.60;2.80;;;;;;5015211;28;20290;-70
2021/01/11 06:00:41;;;;;;;55.15;48.50;;;3.60;3.00;;;;;;5015061;28;20250;-70
2021/01/11 06:03:08;;;;;;;61.40;54.70;;;3.60;3.30;;;;;;5015287;28;20187;-70
2021/01/11 06:05:35;;;;;;;58.60;52.95;;;3.60;2.30;;;;;;5014914;28;20250;-69
2021/01/11 06:08:02;;;;;;;57.10;51.17;;;3.60;1.60;;;;;;5015089;28;20257;-70
2021/01/11 06:10:28;;;;;;;62.78;56.60;;;3.60;1.20;;;;;;5014908;28;20175;-70
2021/01/11 06:12:54;;;;;;;59.20;53.38;;;3.60;1.00;;;;;;5015108;28;20209;-70
2021/01/11 06:15:22;;;;;;;55.42;50.17;;;3.50;1.20;;;;;;5015007;28;20163;-70
2021/01/11 06:17:56;;;;;;;55.33;49.80;;;3.50;1.00;;;;;;5014838;28;20258;-70
2021/01/11 06:20:30;;;;;;;53.38;48.65;;;3.50;1.00;;;;;;5014748;28;20175;-70
2021/01/11 06:23:03;;;;;;;54.47;48.30;;;3.50;1.00;;;;;;5015134;28;20178;-70
2021/01/11 06:25:28;;;;;;;60.17;54.55;;;3.50;1.00;;;;;;5013614;28;20189;-71
2021/01/11 06:28:01;;;;;;;52.03;46.73;;;3.50;1.00;;;;;;5014824;28;20605;-70
2021/01/11 06:30:45;;;;;;;56.05;50.33;;;3.50;2.20;;;;;;5014669;28;20167;-70
2021/01/11 06:33:15;;;;;;;54.15;47.72;;;3.50;1.00;;;;;;5015143;28;20536;-70
2021/01/11 06:35:45;;;;;;;57.03;51.50;;;3.50;1.00;;;;;;5014582;28;20602;-70
2021/01/11 06:38:25;;;;;;;66.07;59.90;;;3.50;1.00;;;;;;5014616;28;20194;-70
2021/01/11 06:41:03;;;;;;;64.00;57.35;;;3.50;1.00;;;;;;5014947;28;20589;-70
2021/01/11 06:43:43;;;;;;;66.88;60.45;;;3.50;1.00;;;;;;5014720;28;20181;-70
2021/01/11 06:46:29;;;;;;;55.80;49.90;;;3.50;1.00;;;;;;5014273;28;20175;-70
2021/01/11 06:49:00;;;;;;;53.17;47.47;;;3.50;1.00;;;;;;5014050;28;20202;-70
2021/01/11 06:51:40;;;;;;;58.97;52.45;;;3.40;1.00;;;;;;5014174;28;20183;-70
2021/01/11 06:54:08;;;;;;;62.55;55.70;;;3.40;1.00;;;;;;5014321;28;20221;-70
2021/01/11 06:56:36;;;;;;;63.22;53.17;;;3.40;1.00;;;;;;5014144;28;20169;-70
2021/01/11 06:59:22;;;;;;;63.05;53.50;;;3.40;1.00;;;;;;5014100;28;20195;-70
2021/01/11 07:01:48;;;;;;;65.13;52.63;;;3.50;1.00;;;;;;5014394;28;20178;-70
2021/01/11 07:04:35;;;;;;;68.07;52.10;;;3.40;1.00;;;;;;5013776;28;20262;-70
2021/01/11 07:07:01;;;;;;;63.15;51.28;;;3.40;1.00;;;;;;5013643;28;20497;-70
2021/01/11 07:09:28;;;;;;;73.90;57.30;;;3.40;1.00;;;;;;5012447;28;20594;-69
2021/01/11 07:12:02;;;;;;;72.07;55.50;;;3.40;1.00;;;;;;5014140;28;20737;-70
2021/01/11 07:15:01;;;;;;;73.93;57.53;;;3.40;1.00;;;;;;5014214;28;20252;-70
2021/01/11 07:17:34;;;;;;;70.80;59.40;;;3.40;1.00;;;;;;5013895;28;20171;-70
2021/01/11 07:19:59;;;;;;;79.57;59.22;;;3.40;1.00;;;;;;5014063;28;20171;-70
2021/01/11 07:22:25;;;;;;;79.77;60.03;;;3.40;1.00;;;;;;5014068;28;20221;-70
2021/01/11 07:24:50;;;;;;;79.80;55.73;;;3.40;1.00;;;;;;5014174;28;20167;-70
2021/01/11 07:27:18;;;;;;;77.80;56.17;;;3.40;1.00;;;;;;5013731;28;20187;-70
2021/01/11 07:29:44;;;;;;;77.40;57.75;;;3.40;1.00;;;;;;5013694;28;20187;-70
2021/01/11 07:32:09;;;;;;;72.70;54.60;;;3.40;1.00;;;;;;5013897;28;20174;-70
2021/01/11 07:34:35;;;;;;;72.63;61.33;;;3.30;1.00;;;;;;5013800;28;20178;-70
2021/01/11 07:37:00;;;;;;;79.27;60.07;;;3.30;1.00;;;;;;5013547;28;20172;-70
2021/01/11 07:39:30;;;;;;;79.00;52.60;;;3.30;1.00;;;;;;5013506;28;20198;-70
2021/01/11 07:41:59;;;;;;;93.45;62.88;;;3.40;1.00;;;;;;5013665;28;20167;-70
2021/01/11 07:44:26;;;;;;;87.70;61.10;;;3.40;1.00;;;;;;5012331;28;20638;-70
2021/01/11 07:47:12;;;;;;;75.32;54.45;;;3.40;1.00;;;;;;5013426;28;20171;-69
2021/01/11 07:49:43;;;;;;;68.28;51.33;;;3.40;1.00;;;;;;5014083;28;20677;-70
2021/01/11 07:52:14;;;;;;;81.50;60.63;;;3.30;1.00;;;;;;5013803;28;20195;-70
2021/01/11 07:54:40;;;;;;;70.85;58.20;;;3.40;1.00;;;;;;5013776;28;20195;-70
2021/01/11 07:57:15;;;;;;;83.30;60.55;;;3.30;1.00;;;;;;5013401;28;20353;-69
2021/01/11 07:59:44;;;;;;;73.28;51.67;;;3.40;1.00;;;;;;5011978;28;20199;-70
2021/01/11 08:02:12;;;;;;;69.45;55.78;;;3.40;1.00;;;;;;5013414;28;20198;-70
2021/01/11 08:04:39;;;;;;;79.75;57.17;;;3.40;1.00;;;;;;5013698;28;20172;-70
2021/01/11 08:07:13;;;;;;;55.50;48.78;;;3.40;1.00;;;;;;5013171;28;20163;-70
2021/01/11 08:09:40;;;;;;;71.57;54.08;;;3.30;1.00;;;;;;5013358;28;20203;-69
2021/01/11 08:12:15;;;;;;;76.10;47.33;;;3.30;1.00;;;;;;5011999;28;20172;-69
2021/01/11 08:14:41;;;;;;;69.85;48.88;;;3.30;1.00;;;;;;5013389;28;20712;-69
2021/01/11 08:17:11;;;;;;;68.03;42.60;;;3.30;1.00;;;;;;5016609;28;20194;-69
2021/01/11 08:19:40;;;;;;;73.00;47.92;;;3.30;1.00;;;;;;5016021;28;20693;-70
2021/01/11 08:22:09;;;;;;;78.18;49.92;;;3.40;1.00;;;;;;5017095;28;20254;-69
2021/01/11 08:24:35;;;;;;;71.80;48.33;;;3.30;1.00;;;;;;5017456;28;20183;-70
2021/01/11 08:27:05;;;;;;;71.67;46.63;;;3.30;1.00;;;;;;5016586;28;20163;-69
2021/01/11 08:29:37;;;;;;;72.55;45.30;;;3.30;1.00;;;;;;5016782;28;20430;-69
2021/01/11 08:32:11;;;;;;;71.50;47.35;;;3.20;1.00;;;;;;5016429;28;20228;-69
2021/01/11 08:34:37;;;;;;;65.28;49.83;;;3.30;1.00;;;;;;5016806;28;20521;-69
2021/01/11 08:37:31;;;;;;;52.20;40.35;;;3.20;1.00;;;;;;5016224;28;20172;-70
2021/01/11 08:39:59;;;;;;;60.72;45.25;;;3.10;1.00;;;;;;5017105;28;20187;-69
2021/01/11 08:42:26;;;;;;;69.15;53.40;;;3.10;1.00;;;;;;5016254;28;20168;-69
2021/01/11 08:44:52;;;;;;;59.58;53.17;;;3.10;1.00;;;;;;5016651;28;20183;-70
2021/01/11 08:47:28;;;;;;;66.60;49.00;;;3.10;1.00;;;;;;5016433;28;20176;-69
2021/01/11 08:49:57;;;;;;;56.40;47.35;;;3.10;1.00;;;;;;5016042;28;20199;-70
2021/01/11 08:52:28;;;;;;;58.55;45.28;;;3.10;1.00;;;;;;5016202;28;20262;-70
2021/01/11 08:54:53;;;;;;;66.40;42.13;;;3.10;1.00;;;;;;5016446;28;20221;-69
2021/01/11 08:57:20;;;;;;;52.03;45.47;;;3.00;1.00;;;;;;5016289;28;20179;-69
2021/01/11 08:59:51;;;;;;;55.92;42.80;;;3.10;1.00;;;;;;5016495;28;20190;-69
2021/01/11 09:02:28;;;;;;;57.25;38.83;;;3.00;1.00;;;;;;5016511;28;20206;-69
2021/01/11 09:04:54;;;;;;;59.85;38.55;;;3.10;1.00;;;;;;5016272;28;20170;-69
2021/01/11 09:07:28;;;;;;;54.97;42.65;;;3.00;1.00;;;;;;5009844;28;20274;-69
2021/01/11 09:09:54;;;;;;;59.88;41.72;;;3.00;1.00;;;;;;5014216;28;20202;-69
2021/01/11 09:12:31;;;;;;;45.27;38.67;;;3.00;1.00;;;;;;5014179;28;20171;-70
2021/01/11 09:14:57;;;;;;;53.10;42.10;;;3.00;1.00;;;;;;5014238;28;20402;-70
2021/01/11 09:17:31;;;;;;;53.72;44.67;;;3.00;1.00;;;;;;5013789;28;20598;-69
2021/01/11 09:20:01;;;;;;;41.67;35.53;;;3.00;1.00;;;;;;5007825;28;20199;-69
2021/01/11 09:22:39;;;;;;;46.13;36.13;;;3.00;1.00;;;;;;5014190;28;20680;-69
2021/01/11 09:25:08;;;;;;;42.78;35.00;;;2.90;1.00;;;;;;5013968;28;20181;-69
2021/01/11 09:27:34;;;;;;;42.30;37.88;;;2.90;1.00;;;;;;5013657;28;20272;-69
2021/01/11 09:30:00;;;;;;;50.35;43.85;;;3.00;1.00;;;;;;5013843;28;20622;-70
2021/01/11 09:32:26;;;;;;;43.80;37.05;;;2.90;1.00;;;;;;5014170;28;20267;-69
2021/01/11 09:34:52;;;;;;;43.73;38.97;;;3.00;1.00;;;;;;5013859;28;20585;-69
2021/01/11 09:37:18;;;;;;;44.53;39.70;;;3.00;1.00;;;;;;5013804;28;20657;-70
2021/01/11 09:39:43;;;;;;;51.43;46.50;;;3.00;1.00;;;;;;5013572;28;20226;-70
2021/01/11 09:42:10;;;;;;;43.47;39.40;;;3.00;1.00;;;;;;5013326;28;20171;-69
2021/01/11 09:44:35;;;;;;;49.80;44.67;;;3.00;1.00;;;;;;5013814;28;20414;-69
2021/01/11 09:47:05;;;;;;;47.93;42.73;;;3.00;1.00;;;;;;5013722;28;20610;-69
2021/01/11 09:49:31;;;;;;;49.58;44.35;;;3.00;1.00;;;;;;5002038;28;20599;-69
2021/01/11 09:51:57;;;;;;;49.25;44.05;;;3.00;1.00;;;;;;5001714;28;20259;-69
2021/01/11 09:54:23;;;;;;;46.87;38.47;;;2.90;1.00;;;;;;4993799;28;20251;-69
2021/01/11 09:56:48;;;;;;;47.50;40.03;;;3.00;1.00;;;;;;5009428;28;20179;-69
2021/01/11 09:59:15;;;;;;;43.40;38.93;;;3.00;1.00;;;;;;5013324;28;20206;-69
2021/01/11 10:01:41;;;;;;;52.33;47.03;;;3.00;1.00;;;;;;5013382;28;20226;-69
2021/01/11 10:04:08;;;;;;;44.25;38.38;;;3.00;1.00;;;;;;5013206;28;20179;-69
2021/01/11 10:06:42;;;;;;;48.17;42.42;;;3.00;1.00;;;;;;5044897;28;20590;-69
2021/01/11 10:09:12;;;;;;;52.05;46.60;;;3.00;1.00;;;;;;5013075;28;20206;-69
2021/01/11 10:11:39;;;;;;;49.72;44.53;;;3.10;1.00;;;;;;5013216;28;20183;-69
2021/01/11 10:14:06;;;;;;;51.15;45.78;;;3.00;1.00;;;;;;5013093;28;20175;-69
2021/01/11 10:16:32;;;;;;;54.08;42.03;;;3.10;1.00;;;;;;5013102;28;20693;-70
2021/01/11 10:18:57;;;;;;;53.23;43.87;;;3.10;1.00;;;;;;5012742;28;20207;-69
2021/01/11 10:21:23;;;;;;;44.50;39.93;;;3.10;1.00;;;;;;5013298;28;20410;-69
2021/01/11 10:23:49;;;;;;;52.75;43.70;;;3.20;1.00;;;;;;5013115;28;20177;-69
2021/01/11 10:26:22;;;;;;;56.30;50.00;;;3.20;1.00;;;;;;5044929;28;20552;-69
2021/01/11 10:28:49;;;;;;;54.20;44.25;;;3.20;1.00;;;;;;5012603;28;20289;-69
2021/01/11 10:31:16;;;;;;;56.72;48.75;;;3.20;1.00;;;;;;5013031;28;20179;-69
2021/01/11 10:33:41;;;;;;;57.60;48.78;;;3.20;1.00;;;;;;5012892;28;20163;-69
2021/01/11 10:36:07;;;;;;;57.47;47.57;;;3.20;1.00;;;;;;5012848;28;20259;-70
2021/01/11 10:38:33;;;;;;;55.50;48.03;;;3.20;1.00;;;;;;5012243;28;20556;-69
2021/01/11 10:40:58;;;;;;;64.77;56.60;;;3.20;1.00;;;;;;5013063;28;20182;-70
2021/01/11 10:43:24;;;;;;;61.27;50.03;;;3.30;1.00;;;;;;5013010;28;20237;-69
2021/01/11 10:45:49;;;;;;;60.17;48.67;;;3.30;1.00;;;;;;5012753;28;20707;-69
2021/01/11 10:48:15;;;;;;;55.53;49.10;;;3.30;1.00;;;;;;5012408;28;20203;-69
2021/01/11 10:50:41;;;;;;;63.57;49.97;;;3.30;1.00;;;;;;5012648;28;20167;-69
2021/01/11 10:53:06;;;;;;;59.60;47.27;;;3.30;1.00;;;;;;5012522;28;20592;-70
2021/01/11 10:55:32;;;;;;;57.43;49.90;;;3.30;1.00;;;;;;5012259;28;20175;-70
2021/01/11 10:57:58;;;;;;;61.40;46.47;;;3.30;1.00;;;;;;5044233;28;20294;-69
2021/01/11 11:00:24;;;;;;;60.20;49.33;;;3.30;1.00;;;;;;5012702;28;20213;-69
2021/01/11 11:02:50;;;;;;;53.67;47.15;;;3.30;1.00;;;;;;5044488;28;20183;-69
2021/01/11 11:05:15;;;;;;;61.47;48.90;;;3.20;1.00;;;;;;5012402;28;20625;-69
2021/01/11 11:07:41;;;;;;;62.00;53.33;;;3.30;1.00;;;;;;5012306;28;20631;-69
2021/01/11 11:10:08;;;;;;;58.80;50.37;;;3.30;1.00;;;;;;5012101;28;20175;-69
2021/01/11 11:12:35;;;;;;;63.15;56.28;;;3.40;1.00;;;;;;5012242;28;20258;-69
2021/01/11 11:15:01;;;;;;;62.13;53.50;;;3.40;1.00;;;;;;5012290;28;20929;-69
2021/01/11 11:17:33;;;;;;;63.03;52.20;;;3.50;1.00;;;;;;5011996;28;20203;-70
2021/01/11 11:19:59;;;;;;;57.35;48.58;;;3.40;1.00;;;;;;5012595;28;20206;-69
2021/01/11 11:22:25;;;;;;;66.40;59.15;;;3.40;1.00;;;;;;5012336;28;20187;-69
2021/01/11 11:24:51;;;;;;;59.95;49.10;;;3.50;1.00;;;;;;5006837;28;20919;-70
2021/01/11 11:27:17;;;;;;;46.90;40.80;;;3.40;1.00;;;;;;5007160;28;20191;-69
2021/01/11 11:29:43;;;;;;;53.97;41.55;;;3.40;1.00;;;;;;4995071;28;20200;-69
2021/01/11 11:32:10;;;;;;;72.47;46.00;;;3.50;1.00;;;;;;4993418;28;20193;-70
2021/01/11 11:34:35;;;;;;;57.10;48.95;;;3.50;1.00;;;;;;4992676;28;20415;-70
2021/01/11 11:37:01;;;;;;;55.67;49.77;;;3.50;1.00;;;;;;4991442;28;20184;-70
2021/01/11 11:39:27;;;;;;;61.43;55.13;;;3.60;1.00;;;;;;4992666;28;20195;-70
2021/01/11 11:41:59;;;;;;;55.73;44.80;;;3.50;1.00;;;;;;4992922;28;20200;-69
2021/01/11 11:44:26;;;;;;;56.15;50.40;;;3.60;1.00;;;;;;4993079;28;20530;-69
2021/01/11 11:46:52;;;;;;;58.10;51.88;;;3.60;1.00;;;;;;4992621;28;20717;-69
2021/01/11 11:49:18;;;;;;;61.47;47.45;;;3.60;1.00;;;;;;4992912;28;20686;-69
2021/01/11 11:51:44;;;;;;;59.93;45.87;;;3.50;1.00;;;;;;4996309;28;20187;-69
2021/01/11 11:54:10;;;;;;;55.05;45.30;;;3.50;1.00;;;;;;4996141;28;20960;-69
2021/01/11 11:56:40;;;;;;;52.03;44.27;;;3.50;1.00;;;;;;4996192;28;20263;-70
2021/01/11 11:59:06;;;;;;;54.97;44.45;;;3.50;1.00;;;;;;4996097;28;20202;-70
2021/01/11 12:01:40;;;;;;;49.20;43.55;;;3.50;1.00;;;;;;4996141;28;20642;-69
2021/01/11 12:04:06;;;;;;;52.50;44.40;;;3.40;1.00;;;;;;4996120;28;20167;-70
2021/01/11 12:06:42;;;;;;;55.08;42.55;;;3.40;1.00;;;;;;4994665;28;20188;-70
2021/01/11 12:09:09;;;;;;;49.70;43.63;;;3.50;1.00;;;;;;4995614;28;20207;-69
2021/01/11 12:11:42;;;;;;;53.42;47.70;;;3.40;1.00;;;;;;4995944;28;20179;-70
2021/01/11 12:14:08;;;;;;;53.13;46.45;;;3.50;1.00;;;;;;4996121;28;20168;-70
2021/01/11 12:16:34;;;;;;;55.00;49.00;;;3.60;1.00;;;;;;4994793;28;20234;-70
2021/01/11 12:19:00;;;;;;;56.17;50.23;;;3.60;1.00;;;;;;4995738;28;20254;-69
2021/01/11 12:21:36;;;;;;;56.00;50.33;;;3.50;1.00;;;;;;4995689;28;20176;-70
2021/01/11 12:24:02;;;;;;;50.55;45.55;;;3.50;1.00;;;;;;4995921;28;20182;-69
2021/01/11 12:26:37;;;;;;;51.72;44.95;;;3.60;1.00;;;;;;4995775;28;20669;-70
2021/01/11 12:29:03;;;;;;;50.33;43.65;;;3.60;1.00;;;;;;4995379;28;20249;-70
2021/01/11 12:31:29;;;;;;;54.90;41.80;;;3.60;1.00;;;;;;4995585;28;20207;-69
2021/01/11 12:33:54;;;;;;;50.17;42.30;;;3.60;1.00;;;;;;4995494;28;20172;-69
2021/01/11 12:36:27;;;;;;;41.47;37.23;;;3.60;1.00;;;;;;4995593;28;20436;-70
2021/01/11 12:38:54;;;;;;;37.55;33.15;;;3.70;1.00;;;;;;4995538;28;20954;-70
2021/01/11 12:41:21;;;;;;;49.13;37.47;;;3.70;1.00;;;;;;4995425;28;20275;-69
2021/01/11 12:43:47;;;;;;;47.38;40.25;;;3.70;1.00;;;;;;4994088;28;20184;-70
2021/01/11 12:46:14;;;;;;;46.85;38.80;;;3.70;1.00;;;;;;4995693;28;20592;-70
2021/01/11 12:48:40;;;;;;;48.15;39.60;;;3.70;1.00;;;;;;4995309;28;20666;-70
2021/01/11 12:51:20;;;;;;;48.00;39.37;;;3.70;1.00;;;;;;4995509;28;20210;-70
2021/01/11 12:53:47;;;;;;;42.35;37.80;;;3.70;1.00;;;;;;4995066;28;20170;-70